Time;durP1;ratioP1;P1;durP2;ratioP2;P2;SDS_P1;SDS_P2;PMS_P1;PMS_P2;Temp;Humidity;BMP_temperature;BMP_pressure;BME280_temperature;BME280_humidity;BME280_pressure;Samples;Min_cycle;Max_cycle;Signal;HPM_P1;HPM_P2
2024/01/07 00:01:31;;;;;;;10.27;5.35;;;1.60;99.90;;;;;;5089859;28;20511;-87
2024/01/07 00:03:57;;;;;;;13.05;5.40;;;1.60;99.90;;;;;;5085570;28;20040;-87
2024/01/07 00:06:23;;;;;;;11.45;5.32;;;1.60;99.90;;;;;;5081817;28;20044;-88
2024/01/07 00:08:48;;;;;;;13.70;7.32;;;1.60;99.90;;;;;;5092094;28;20123;-88
2024/01/07 00:11:14;;;;;;;15.40;7.78;;;1.60;99.90;;;;;;5075508;28;20040;-88
2024/01/07 00:13:40;;;;;;;13.93;7.28;;;1.60;99.90;;;;;;5091948;28;20044;-88
2024/01/07 00:16:05;;;;;;;13.90;6.95;;;1.60;99.90;;;;;;5075200;28;20036;-88
2024/01/07 00:18:31;;;;;;;16.20;7.82;;;1.60;99.90;;;;;;5091980;28;20043;-88
2024/01/07 00:20:57;;;;;;;12.38;5.80;;;1.60;99.90;;;;;;5075023;28;20040;-88
2024/01/07 00:23:22;;;;;;;12.93;5.32;;;1.60;99.90;;;;;;5091286;28;20080;-87
2024/01/07 00:25:48;;;;;;;9.85;4.97;;;1.60;99.90;;;;;;5075292;28;20039;-88
2024/01/07 00:28:14;;;;;;;10.75;5.63;;;1.50;99.90;;;;;;5091833;28;20407;-88
2024/01/07 00:30:39;;;;;;;13.20;6.57;;;1.50;99.90;;;;;;5091669;28;20085;-88
2024/01/07 00:33:05;;;;;;;13.63;6.80;;;1.60;99.90;;;;;;5074935;28;20043;-88
2024/01/07 00:35:31;;;;;;;12.55;4.97;;;1.50;99.90;;;;;;5091361;28;20028;-88
2024/01/07 00:37:57;;;;;;;13.32;6.03;;;1.60;99.90;;;;;;5075029;28;20047;-88
2024/01/07 00:40:26;;;;;;;11.20;5.40;;;1.60;99.90;;;;;;5091585;28;20036;-88
2024/01/07 00:42:52;;;;;;;9.65;4.95;;;1.60;99.90;;;;;;5075017;28;20043;-89
2024/01/07 00:45:18;;;;;;;9.55;3.70;;;1.60;99.90;;;;;;5074550;28;20515;-88
2024/01/07 00:47:44;;;;;;;12.15;6.05;;;1.50;99.90;;;;;;5074531;28;20074;-88
2024/01/07 00:50:09;;;;;;;10.40;5.18;;;1.60;99.90;;;;;;5091411;28;20063;-88
2024/01/07 00:52:38;;;;;;;12.55;5.70;;;1.60;99.90;;;;;;5080186;28;20037;-87
2024/01/07 00:55:06;;;;;;;12.45;5.15;;;1.60;99.90;;;;;;5069051;28;20028;-87
2024/01/07 00:57:32;;;;;;;13.98;7.45;;;1.60;99.90;;;;;;5074638;28;20063;-88
2024/01/07 00:59:57;;;;;;;13.02;6.28;;;1.60;99.90;;;;;;5074447;28;20664;-88
2024/01/07 01:02:23;;;;;;;12.25;4.72;;;1.60;99.90;;;;;;5074046;28;20119;-88
2024/01/07 01:04:48;;;;;;;14.20;5.65;;;1.60;99.90;;;;;;5066111;28;20040;-88
2024/01/07 01:07:14;;;;;;;11.77;4.75;;;1.60;99.90;;;;;;5090911;28;20545;-88
2024/01/07 01:09:40;;;;;;;7.28;3.35;;;1.60;99.90;;;;;;5065819;28;20036;-88
2024/01/07 01:12:06;;;;;;;9.20;4.57;;;1.50;99.90;;;;;;5074107;28;20102;-88
2024/01/07 01:14:32;;;;;;;9.82;4.15;;;1.50;99.90;;;;;;5073847;28;20082;-88
2024/01/07 01:16:57;;;;;;;14.18;5.63;;;1.50;99.90;;;;;;5074010;28;20398;-88
2024/01/07 01:19:24;;;;;;;9.63;4.53;;;1.50;99.90;;;;;;5073881;28;20040;-88
2024/01/07 01:21:50;;;;;;;11.38;4.88;;;1.50;99.90;;;;;;5074129;28;20059;-88
2024/01/07 01:24:15;;;;;;;10.73;4.95;;;1.50;99.90;;;;;;5073709;28;20502;-87
2024/01/07 01:26:44;;;;;;;12.32;4.75;;;1.50;99.90;;;;;;5090621;28;20384;-88
2024/01/07 01:29:09;;;;;;;9.27;3.97;;;1.50;99.90;;;;;;5069899;28;20064;-89
2024/01/07 01:31:35;;;;;;;8.40;3.95;;;1.50;99.90;;;;;;5064914;28;20076;-89
2024/01/07 01:34:01;;;;;;;9.05;3.58;;;1.50;99.90;;;;;;5073428;28;20043;-88
2024/01/07 01:36:26;;;;;;;9.77;4.32;;;1.50;99.90;;;;;;5090578;28;20084;-88
2024/01/07 01:38:52;;;;;;;9.43;4.35;;;1.50;99.90;;;;;;5073638;28;20047;-88
2024/01/07 01:41:17;;;;;;;11.93;3.97;;;1.50;99.90;;;;;;5073782;28;20047;-88
2024/01/07 01:43:43;;;;;;;9.45;4.03;;;1.50;99.90;;;;;;5086222;28;20452;-88
2024/01/07 01:46:09;;;;;;;10.48;5.18;;;1.50;99.90;;;;;;5060822;28;20065;-88
2024/01/07 01:48:35;;;;;;;9.95;4.15;;;1.50;99.90;;;;;;5073640;28;20123;-88
2024/01/07 01:51:02;;;;;;;9.52;4.55;;;1.50;99.90;;;;;;5090101;28;20040;-88
2024/01/07 01:53:28;;;;;;;7.80;3.20;;;1.50;99.90;;;;;;5073172;28;20054;-88
2024/01/07 01:55:56;;;;;;;10.88;4.28;;;1.50;99.90;;;;;;5090513;28;20044;-88
2024/01/07 01:58:23;;;;;;;11.45;4.70;;;1.50;99.90;;;;;;5073752;28;20051;-88
2024/01/07 02:00:50;;;;;;;10.15;4.13;;;1.50;99.90;;;;;;5090196;28;20032;-88
2024/01/07 02:03:17;;;;;;;7.72;3.42;;;1.50;99.90;;;;;;5073021;28;20047;-88
2024/01/07 02:05:43;;;;;;;6.15;2.88;;;1.50;99.90;;;;;;5082186;28;20138;-88
2024/01/07 02:08:09;;;;;;;9.50;4.32;;;1.50;99.90;;;;;;5073477;28;20603;-88
2024/01/07 02:10:36;;;;;;;9.40;3.65;;;1.50;99.90;;;;;;5073122;28;20131;-88
2024/01/07 02:13:03;;;;;;;15.88;3.35;;;1.50;99.90;;;;;;5072476;28;20043;-88
2024/01/07 02:15:29;;;;;;;11.15;5.35;;;1.50;99.90;;;;;;5072871;28;20040;-88
2024/01/07 02:17:55;;;;;;;10.02;5.15;;;1.60;99.90;;;;;;5072930;28;20078;-88
2024/01/07 02:20:20;;;;;;;11.40;5.20;;;1.50;99.90;;;;;;5090294;28;20078;-88
2024/01/07 02:22:46;;;;;;;10.40;4.45;;;1.50;99.90;;;;;;5090749;28;20599;-88
2024/01/07 02:25:12;;;;;;;11.13;6.38;;;1.50;99.90;;;;;;5074196;28;20082;-88
2024/01/07 02:27:37;;;;;;;7.57;3.30;;;1.50;99.90;;;;;;5075180;28;20040;-88
2024/01/07 02:30:03;;;;;;;10.98;4.85;;;1.50;99.90;;;;;;5063364;28;20094;-89
2024/01/07 02:32:32;;;;;;;11.93;5.50;;;1.50;99.90;;;;;;5052609;28;20282;-88
2024/01/07 02:34:57;;;;;;;7.05;3.95;;;1.50;99.90;;;;;;5053001;28;20412;-88
2024/01/07 02:37:23;;;;;;;10.48;4.15;;;1.50;99.90;;;;;;5070502;28;20041;-88
2024/01/07 02:39:49;;;;;;;9.25;4.28;;;1.50;99.90;;;;;;5072869;28;20439;-88
2024/01/07 02:42:14;;;;;;;11.07;4.90;;;1.50;99.90;;;;;;5089675;28;20040;-88
2024/01/07 02:44:40;;;;;;;11.10;4.93;;;1.50;99.90;;;;;;5089308;28;20036;-88
2024/01/07 02:47:05;;;;;;;12.18;5.25;;;1.50;99.90;;;;;;5072895;28;20459;-88
2024/01/07 02:49:31;;;;;;;10.15;4.93;;;1.50;99.90;;;;;;5073194;28;20518;-88
2024/01/07 02:51:56;;;;;;;10.02;4.95;;;1.50;99.90;;;;;;5073062;28;20036;-88
2024/01/07 02:54:22;;;;;;;10.95;5.50;;;1.50;99.90;;;;;;5072406;28;20040;-88
2024/01/07 02:56:48;;;;;;;10.57;4.88;;;1.50;99.90;;;;;;5089547;28;20036;-87
2024/01/07 02:59:13;;;;;;;9.77;3.95;;;1.50;99.90;;;;;;5089747;28;20036;-88
2024/01/07 03:01:42;;;;;;;9.05;3.78;;;1.50;99.90;;;;;;5089378;28;20127;-87
2024/01/07 03:04:12;;;;;;;9.63;3.75;;;1.50;99.90;;;;;;5072483;28;20087;-87
2024/01/07 03:06:38;;;;;;;7.78;3.90;;;1.50;99.90;;;;;;5072979;28;20439;-87
2024/01/07 03:09:04;;;;;;;9.73;4.32;;;1.50;99.90;;;;;;5072935;28;20055;-87
2024/01/07 03:11:30;;;;;;;8.77;4.28;;;1.50;99.90;;;;;;5072499;28;20036;-88
2024/01/07 03:13:56;;;;;;;10.43;4.68;;;1.50;99.90;;;;;;5089219;28;20063;-88
2024/01/07 03:16:23;;;;;;;9.82;4.55;;;1.50;99.90;;;;;;5072116;28;20093;-87
2024/01/07 03:18:49;;;;;;;12.20;5.22;;;1.50;99.90;;;;;;5072552;28;20036;-88
2024/01/07 03:21:19;;;;;;;9.30;4.88;;;1.50;99.90;;;;;;5072653;28;20081;-88
2024/01/07 03:23:45;;;;;;;9.23;4.15;;;1.50;99.90;;;;;;5072515;28;20433;-88
2024/01/07 03:26:11;;;;;;;10.20;4.28;;;1.40;99.90;;;;;;5092370;28;20044;-87
2024/01/07 03:28:37;;;;;;;9.90;3.70;;;1.40;99.90;;;;;;5064783;28;20411;-87
2024/01/07 03:31:09;;;;;;;8.57;3.90;;;1.40;99.90;;;;;;5056289;28;20107;-88
2024/01/07 03:33:34;;;;;;;10.82;4.97;;;1.40;99.90;;;;;;5055518;28;20032;-87
2024/01/07 03:36:00;;;;;;;9.25;4.53;;;1.40;99.90;;;;;;5055971;28;20090;-87
2024/01/07 03:38:25;;;;;;;9.48;4.03;;;1.40;99.90;;;;;;5065906;28;20623;-88
2024/01/07 03:40:51;;;;;;;8.25;4.15;;;1.40;99.90;;;;;;5075895;28;20047;-88
2024/01/07 03:43:17;;;;;;;11.85;5.57;;;1.40;99.90;;;;;;5075771;28;20038;-87
2024/01/07 03:45:43;;;;;;;9.90;4.55;;;1.30;99.90;;;;;;5092429;28;20123;-88
2024/01/07 03:48:09;;;;;;;8.57;3.63;;;1.30;99.90;;;;;;5075748;28;20040;-88
2024/01/07 03:50:34;;;;;;;10.77;5.07;;;1.30;99.90;;;;;;5092500;28;20032;-88
2024/01/07 03:53:00;;;;;;;10.07;5.05;;;1.30;99.90;;;;;;5075391;28;20040;-88
2024/01/07 03:55:25;;;;;;;8.18;3.88;;;1.30;99.90;;;;;;5092127;28;20032;-88
2024/01/07 03:57:51;;;;;;;9.63;4.50;;;1.30;99.90;;;;;;5075693;28;20130;-88
2024/01/07 04:00:17;;;;;;;13.18;4.63;;;1.30;99.90;;;;;;5092371;28;20128;-87
2024/01/07 04:02:43;;;;;;;8.95;4.03;;;1.30;99.90;;;;;;5075662;28;20384;-88
2024/01/07 04:05:09;;;;;;;10.05;4.15;;;1.30;99.90;;;;;;5092520;28;20055;-88
2024/01/07 04:07:35;;;;;;;10.90;5.00;;;1.30;99.90;;;;;;5075372;28;20048;-88
2024/01/07 04:10:00;;;;;;;9.98;4.80;;;1.30;99.90;;;;;;5075393;28;20046;-88
2024/01/07 04:12:26;;;;;;;8.48;4.65;;;1.30;99.90;;;;;;5092274;28;20039;-88
2024/01/07 04:14:52;;;;;;;9.63;4.35;;;1.30;99.90;;;;;;5069902;28;20495;-88
2024/01/07 04:17:17;;;;;;;10.20;4.30;;;1.20;99.90;;;;;;5063939;28;20081;-87
2024/01/07 04:19:43;;;;;;;10.82;3.53;;;1.20;99.90;;;;;;5092026;28;20533;-87
2024/01/07 04:22:08;;;;;;;11.68;5.63;;;1.20;99.90;;;;;;5074930;28;20055;-89
2024/01/07 04:24:34;;;;;;;9.07;4.57;;;1.20;99.90;;;;;;5074953;28;20043;-87
2024/01/07 04:27:00;;;;;;;10.90;4.13;;;1.20;99.90;;;;;;5075142;28;20494;-87
2024/01/07 04:29:25;;;;;;;8.25;3.70;;;1.10;99.90;;;;;;5082134;28;20482;-87
2024/01/07 04:31:51;;;;;;;6.70;2.70;;;1.20;99.90;;;;;;5054970;28;20526;-87
2024/01/07 04:34:16;;;;;;;8.02;3.90;;;1.10;99.90;;;;;;5054496;28;20037;-87
2024/01/07 04:36:42;;;;;;;9.95;4.72;;;1.10;99.90;;;;;;5058005;28;20044;-87
2024/01/07 04:39:09;;;;;;;9.52;4.03;;;1.10;99.90;;;;;;5074976;28;20647;-87
2024/01/07 04:41:35;;;;;;;9.75;4.50;;;1.10;99.90;;;;;;5074611;28;20043;-87
2024/01/07 04:44:03;;;;;;;10.13;4.38;;;1.10;99.90;;;;;;5091159;28;20043;-87
2024/01/07 04:46:28;;;;;;;9.82;3.38;;;1.10;99.90;;;;;;5091915;28;20051;-88
2024/01/07 04:48:54;;;;;;;8.50;3.72;;;1.10;99.90;;;;;;5086491;28;20036;-87
2024/01/07 04:51:20;;;;;;;10.15;5.47;;;1.10;99.90;;;;;;5054983;28;20450;-87
2024/01/07 04:53:46;;;;;;;9.25;4.07;;;1.00;99.90;;;;;;5075965;28;20123;-87
2024/01/07 04:56:11;;;;;;;9.45;4.57;;;1.00;99.90;;;;;;5079449;28;20036;-88
2024/01/07 04:58:37;;;;;;;10.50;4.43;;;1.00;99.90;;;;;;5086929;28;20043;-87
2024/01/07 05:01:03;;;;;;;11.38;5.28;;;1.00;99.90;;;;;;5075155;28;20032;-88
2024/01/07 05:03:28;;;;;;;7.43;3.03;;;1.00;99.90;;;;;;5073952;28;20083;-88
2024/01/07 05:05:54;;;;;;;5.68;2.63;;;1.00;99.90;;;;;;5074391;28;20078;-88
2024/01/07 05:08:20;;;;;;;6.20;2.83;;;1.00;99.90;;;;;;5091360;28;20046;-87
2024/01/07 05:10:45;;;;;;;11.20;3.83;;;0.90;99.90;;;;;;5091122;28;20396;-87
2024/01/07 05:13:11;;;;;;;8.55;3.50;;;1.00;99.90;;;;;;5078196;28;20043;-83
2024/01/07 05:15:36;;;;;;;10.57;4.20;;;0.90;99.90;;;;;;5100975;28;20036;-89
2024/01/07 05:18:02;;;;;;;11.65;4.53;;;1.00;99.90;;;;;;5080580;28;20492;-88
2024/01/07 05:20:28;;;;;;;8.60;3.55;;;1.00;99.90;;;;;;5073356;28;20032;-88
2024/01/07 05:22:53;;;;;;;10.40;4.32;;;0.90;99.90;;;;;;5094033;28;20498;-86
2024/01/07 05:25:19;;;;;;;12.40;3.58;;;0.90;99.90;;;;;;5078225;28;20040;-87
2024/01/07 05:27:44;;;;;;;7.13;3.03;;;0.90;99.90;;;;;;5073953;28;20095;-88
2024/01/07 05:30:11;;;;;;;8.55;3.22;;;0.90;99.90;;;;;;5090717;28;20032;-88
2024/01/07 05:32:36;;;;;;;11.73;4.20;;;0.90;99.90;;;;;;5090707;28;20122;-88
2024/01/07 05:35:02;;;;;;;10.27;4.55;;;0.90;99.90;;;;;;5073427;28;20111;-88
2024/01/07 05:37:28;;;;;;;7.00;3.50;;;0.90;99.90;;;;;;5089207;28;20051;-88
2024/01/07 05:39:53;;;;;;;10.57;4.53;;;0.90;99.90;;;;;;5065478;28;20447;-88
2024/01/07 05:42:19;;;;;;;9.70;4.43;;;1.00;99.90;;;;;;5087577;28;20051;-88
2024/01/07 05:44:45;;;;;;;8.90;3.75;;;1.00;99.90;;;;;;5073305;28;20510;-88
2024/01/07 05:47:10;;;;;;;8.70;3.10;;;1.00;99.90;;;;;;5073633;28;20075;-88
2024/01/07 05:49:36;;;;;;;10.57;4.15;;;0.90;99.90;;;;;;5073613;28;20549;-88
2024/01/07 05:52:02;;;;;;;9.48;3.80;;;0.90;99.90;;;;;;5073468;28;20044;-87
2024/01/07 05:54:27;;;;;;;11.77;3.75;;;0.90;99.90;;;;;;5073029;28;20436;-88
2024/01/07 05:56:53;;;;;;;9.32;3.78;;;0.90;99.90;;;;;;5073410;28;20085;-88
2024/01/07 05:59:19;;;;;;;9.30;4.05;;;0.90;99.90;;;;;;5073612;28;20036;-87
2024/01/07 06:01:45;;;;;;;7.10;3.10;;;0.90;99.90;;;;;;5090639;28;20550;-87
2024/01/07 06:04:10;;;;;;;8.10;3.33;;;0.90;99.90;;;;;;5073021;28;20481;-87
2024/01/07 06:06:36;;;;;;;9.57;3.83;;;0.90;99.90;;;;;;5073250;28;20047;-87
2024/01/07 06:09:02;;;;;;;13.60;2.47;;;0.90;99.90;;;;;;5073624;28;20040;-88
2024/01/07 06:11:27;;;;;;;5.22;2.03;;;0.90;99.90;;;;;;5072985;28;20557;-87
2024/01/07 06:13:53;;;;;;;6.32;2.38;;;0.90;99.90;;;;;;5089780;28;20040;-87
2024/01/07 06:16:19;;;;;;;6.45;2.55;;;0.90;99.90;;;;;;5072988;28;20072;-88
2024/01/07 06:18:44;;;;;;;3.45;1.63;;;0.80;99.90;;;;;;5073282;28;20032;-88
2024/01/07 06:21:10;;;;;;;5.00;2.10;;;0.90;99.90;;;;;;5073021;28;20059;-88
2024/01/07 06:23:35;;;;;;;6.00;1.65;;;0.80;99.90;;;;;;5081435;28;20122;-88
2024/01/07 06:26:04;;;;;;;6.05;2.28;;;0.80;99.90;;;;;;5089627;28;20522;-88
2024/01/07 06:28:32;;;;;;;4.25;1.63;;;0.80;99.90;;;;;;5072693;28;20051;-87
2024/01/07 06:30:58;;;;;;;3.92;1.52;;;0.80;99.90;;;;;;5084173;28;20080;-88
2024/01/07 06:33:23;;;;;;;3.20;1.40;;;0.80;99.90;;;;;;5062122;28;20161;-88
2024/01/07 06:35:49;;;;;;;6.28;1.95;;;0.80;99.90;;;;;;5073028;28;20077;-88
2024/01/07 06:38:15;;;;;;;7.13;2.30;;;0.80;99.90;;;;;;5072943;28;20036;-88
2024/01/07 06:40:40;;;;;;;3.83;1.55;;;0.80;99.90;;;;;;5089795;28;20054;-88
2024/01/07 06:43:06;;;;;;;4.28;1.50;;;0.80;99.90;;;;;;5072865;28;20054;-87
2024/01/07 06:45:32;;;;;;;6.05;2.03;;;0.80;99.90;;;;;;5072592;28;20051;-87
2024/01/07 06:47:58;;;;;;;4.43;1.95;;;0.80;99.90;;;;;;5089982;28;20051;-87
2024/01/07 06:50:24;;;;;;;6.10;1.92;;;0.80;99.90;;;;;;5089536;28;20391;-87
2024/01/07 06:52:49;;;;;;;4.93;1.60;;;0.80;99.90;;;;;;5084946;28;20170;-87
2024/01/07 06:55:15;;;;;;;4.63;1.73;;;0.80;99.90;;;;;;5072974;28;20672;-88
2024/01/07 06:57:40;;;;;;;2.60;1.08;;;0.80;99.90;;;;;;5072724;28;20043;-88
2024/01/07 07:00:07;;;;;;;2.20;0.95;;;0.80;99.90;;;;;;5074417;28;20043;-88
2024/01/07 07:02:33;;;;;;;3.60;1.52;;;0.80;99.90;;;;;;5076694;28;20337;-87
2024/01/07 07:04:58;;;;;;;2.75;0.93;;;0.80;99.90;;;;;;5093221;28;20089;-88
2024/01/07 07:07:24;;;;;;;5.20;2.15;;;0.80;99.90;;;;;;5076697;28;20094;-88
2024/01/07 07:09:50;;;;;;;5.65;1.52;;;0.80;99.90;;;;;;5076509;28;20036;-88
2024/01/07 07:12:15;;;;;;;3.65;1.25;;;0.80;99.90;;;;;;5093572;28;20450;-88
2024/01/07 07:14:41;;;;;;;5.47;1.83;;;0.80;99.90;;;;;;5076179;28;20043;-87
2024/01/07 07:17:07;;;;;;;5.03;1.80;;;0.80;99.90;;;;;;5076520;28;20494;-88
2024/01/07 07:19:33;;;;;;;2.65;1.20;;;0.80;99.90;;;;;;5084526;28;20071;-88
2024/01/07 07:21:58;;;;;;;5.65;1.52;;;0.80;99.90;;;;;;5079077;28;20041;-88
2024/01/07 07:24:24;;;;;;;4.15;1.48;;;0.80;99.90;;;;;;5049347;28;20036;-87
2024/01/07 07:26:49;;;;;;;3.80;1.38;;;0.80;99.90;;;;;;5072163;28;20411;-88
2024/01/07 07:29:15;;;;;;;4.35;1.85;;;0.80;99.90;;;;;;5062420;28;20044;-87
2024/01/07 07:31:40;;;;;;;4.72;2.10;;;0.80;99.90;;;;;;5076779;28;20051;-87
2024/01/07 07:34:09;;;;;;;2.92;1.33;;;0.80;99.90;;;;;;5076933;28;20040;-87
2024/01/07 07:36:34;;;;;;;3.58;1.20;;;0.70;99.90;;;;;;5103097;28;20062;-87
2024/01/07 07:39:00;;;;;;;4.65;1.65;;;0.80;99.90;;;;;;5082446;28;20040;-87
2024/01/07 07:41:26;;;;;;;4.25;1.73;;;0.80;99.90;;;;;;5075965;28;20040;-88
2024/01/07 07:43:51;;;;;;;4.93;1.80;;;0.80;99.90;;;;;;5092642;28;20040;-88
2024/01/07 07:46:17;;;;;;;2.72;1.20;;;0.80;99.90;;;;;;5092941;28;20039;-87
2024/01/07 07:48:43;;;;;;;5.63;1.38;;;0.70;99.90;;;;;;5092940;28;20081;-88
2024/01/07 07:51:08;;;;;;;3.97;1.55;;;0.80;99.90;;;;;;5064222;28;20047;-87
2024/01/07 07:53:34;;;;;;;7.68;2.20;;;0.70;99.90;;;;;;5075399;28;20123;-88
2024/01/07 07:56:00;;;;;;;5.45;1.70;;;0.70;99.90;;;;;;5069782;28;20032;-88
2024/01/07 07:58:26;;;;;;;5.20;1.30;;;0.70;99.90;;;;;;5065226;28;20119;-87
2024/01/07 08:00:52;;;;;;;4.53;1.40;;;0.70;99.90;;;;;;5062835;28;20128;-88
2024/01/07 08:03:17;;;;;;;2.55;1.20;;;0.60;99.90;;;;;;5062839;28;20483;-88
2024/01/07 08:05:43;;;;;;;5.47;1.88;;;0.70;99.90;;;;;;5075479;28;20040;-89
2024/01/07 08:08:08;;;;;;;3.83;1.42;;;0.60;99.90;;;;;;5075580;28;20145;-87
2024/01/07 08:10:35;;;;;;;3.33;1.23;;;0.60;99.90;;;;;;5064184;28;20040;-88
2024/01/07 08:13:01;;;;;;;2.20;0.90;;;0.60;99.90;;;;;;5085843;28;20576;-88
2024/01/07 08:15:27;;;;;;;2.20;0.88;;;0.70;99.90;;;;;;5075087;28;20036;-88
2024/01/07 08:17:52;;;;;;;2.33;1.30;;;0.70;99.90;;;;;;5075637;28;20047;-88
2024/01/07 08:20:19;;;;;;;3.58;1.33;;;0.70;99.90;;;;;;5075119;28;20526;-87
2024/01/07 08:22:45;;;;;;;5.05;1.52;;;0.60;99.90;;;;;;5075118;28;20036;-88
2024/01/07 08:25:11;;;;;;;5.03;1.60;;;0.70;99.90;;;;;;5076341;28;20032;-87
2024/01/07 08:27:37;;;;;;;2.05;1.17;;;0.60;99.90;;;;;;5071490;28;20044;-88
2024/01/07 08:30:03;;;;;;;1.60;0.90;;;0.70;99.90;;;;;;5055023;28;20047;-89
2024/01/07 08:32:29;;;;;;;3.10;1.75;;;0.60;99.90;;;;;;5055088;28;20032;-88
2024/01/07 08:34:54;;;;;;;3.95;1.05;;;0.60;99.90;;;;;;5070889;28;20715;-88
2024/01/07 08:37:20;;;;;;;2.17;0.70;;;0.60;99.90;;;;;;5063690;28;20035;-87
2024/01/07 08:39:45;;;;;;;3.55;0.95;;;0.60;99.90;;;;;;5074923;28;20057;-88
2024/01/07 08:42:11;;;;;;;2.40;0.82;;;0.60;99.90;;;;;;5091791;28;20039;-87
2024/01/07 08:44:36;;;;;;;5.57;1.42;;;0.60;99.90;;;;;;5071539;28;20044;-88
2024/01/07 08:47:02;;;;;;;1.58;0.93;;;0.60;99.90;;;;;;5056666;28;20044;-88
2024/01/07 08:49:29;;;;;;;3.53;1.00;;;0.60;99.90;;;;;;5087964;28;20432;-88
2024/01/07 08:51:56;;;;;;;4.65;1.40;;;0.60;99.90;;;;;;5076865;28;20127;-89
2024/01/07 08:54:22;;;;;;;4.30;1.40;;;0.60;99.90;;;;;;5091206;28;20085;-87
2024/01/07 08:56:49;;;;;;;3.35;1.63;;;0.60;99.90;;;;;;5091367;28;20075;-88
2024/01/07 08:59:15;;;;;;;4.18;1.27;;;0.60;99.90;;;;;;5091317;28;20047;-89
2024/01/07 09:01:40;;;;;;;2.85;1.15;;;0.60;99.90;;;;;;5064416;28;20036;-88
2024/01/07 09:04:09;;;;;;;3.40;1.42;;;0.60;99.90;;;;;;5057397;28;20403;-87
2024/01/07 09:06:34;;;;;;;2.70;0.98;;;0.60;99.90;;;;;;5055991;28;20067;-88
2024/01/07 09:09:00;;;;;;;2.47;1.05;;;0.60;99.90;;;;;;5053555;28;20037;-88
2024/01/07 09:11:26;;;;;;;3.22;1.13;;;0.60;99.90;;;;;;5054881;28;20090;-88
2024/01/07 09:13:57;;;;;;;0.98;0.65;;;0.60;99.90;;;;;;5054456;28;20036;-88
2024/01/07 09:16:23;;;;;;;4.68;1.25;;;0.60;99.90;;;;;;5050994;28;20037;-87
2024/01/07 09:18:49;;;;;;;3.42;1.35;;;0.70;99.90;;;;;;5056156;28;20028;-88
2024/01/07 09:21:15;;;;;;;3.65;1.25;;;0.70;99.90;;;;;;5056142;28;20119;-88
2024/01/07 09:23:44;;;;;;;6.50;1.60;;;0.70;99.90;;;;;;5060739;28;20040;-88
2024/01/07 09:26:10;;;;;;;2.63;1.17;;;0.80;99.90;;;;;;5056133;28;20116;-87
2024/01/07 09:28:36;;;;;;;4.25;1.27;;;0.80;99.90;;;;;;5055837;28;20097;-87
2024/01/07 09:31:02;;;;;;;4.15;1.48;;;0.80;99.90;;;;;;5056384;28;20044;-88
2024/01/07 09:33:28;;;;;;;2.88;1.27;;;0.90;99.90;;;;;;5076887;28;20039;-88
2024/01/07 09:35:54;;;;;;;5.18;1.73;;;1.00;99.90;;;;;;5052430;28;20040;-88
2024/01/07 09:38:20;;;;;;;5.50;1.83;;;1.00;99.90;;;;;;5073226;28;20029;-88
2024/01/07 09:40:46;;;;;;;2.90;1.45;;;1.00;99.90;;;;;;5052498;28;20044;-88
2024/01/07 09:43:12;;;;;;;5.45;1.33;;;1.10;99.90;;;;;;5050622;28;20036;-88
2024/01/07 09:45:41;;;;;;;2.92;1.30;;;1.20;99.90;;;;;;5055996;28;20563;-88
2024/01/07 09:48:13;;;;;;;3.38;1.10;;;1.20;99.90;;;;;;5056577;28;20483;-87
2024/01/07 09:50:39;;;;;;;3.67;1.23;;;1.30;99.90;;;;;;5078908;28;20028;-88
2024/01/07 09:53:05;;;;;;;2.70;1.10;;;1.40;99.90;;;;;;5053125;28;20119;-88
2024/01/07 09:55:40;;;;;;;1.77;0.90;;;1.40;99.90;;;;;;5075026;28;20040;-87
2024/01/07 09:58:06;;;;;;;4.05;1.25;;;1.50;99.90;;;;;;5062788;28;20024;-84
2024/01/07 10:00:32;;;;;;;2.88;1.17;;;1.50;99.90;;;;;;5062314;28;20038;-88
2024/01/07 10:02:58;;;;;;;2.80;1.08;;;1.60;99.90;;;;;;5079301;28;20407;-89
2024/01/07 10:05:24;;;;;;;4.32;1.35;;;1.70;99.90;;;;;;5065980;28;20507;-89
2024/01/07 10:07:49;;;;;;;4.15;1.25;;;1.70;99.90;;;;;;5072534;28;20482;-88
2024/01/07 10:10:17;;;;;;;2.28;0.95;;;1.80;99.90;;;;;;5062636;28;20032;-89
2024/01/07 10:12:45;;;;;;;4.13;1.63;;;1.80;99.90;;;;;;5107841;28;20063;-89
2024/01/07 10:15:11;;;;;;;4.68;0.98;;;1.90;99.90;;;;;;5058269;28;20048;-89
2024/01/07 10:17:38;;;;;;;3.65;1.58;;;2.00;99.90;;;;;;5074091;28;20036;-89
2024/01/07 10:20:05;;;;;;;5.40;1.65;;;2.00;99.90;;;;;;5058503;28;20070;-89
2024/01/07 10:22:31;;;;;;;5.53;1.38;;;2.10;99.90;;;;;;5072118;28;20714;-89
2024/01/07 10:24:58;;;;;;;2.78;1.30;;;2.10;99.90;;;;;;5073362;28;20101;-89
2024/01/07 10:27:23;;;;;;;2.53;1.05;;;2.10;99.90;;;;;;5073340;28;20040;-90
2024/01/07 10:29:50;;;;;;;3.53;1.38;;;2.10;99.90;;;;;;5060151;28;20062;-91
2024/01/07 10:32:19;;;;;;;2.85;0.90;;;2.10;99.90;;;;;;5061444;28;20045;-90
2024/01/07 10:34:49;;;;;;;1.17;0.60;;;2.10;99.90;;;;;;5046006;28;20044;-89
2024/01/07 10:37:15;;;;;;;3.80;1.55;;;2.00;99.90;;;;;;5057091;28;20491;-89
2024/01/07 10:39:40;;;;;;;2.17;0.90;;;2.00;99.90;;;;;;5076924;28;20043;-89
2024/01/07 10:42:07;;;;;;;3.45;0.80;;;2.00;99.90;;;;;;5076998;28;20032;-87
2024/01/07 10:44:33;;;;;;;2.63;0.95;;;2.00;99.90;;;;;;5076553;28;20050;-89
2024/01/07 10:47:00;;;;;;;1.42;0.90;;;2.00;99.90;;;;;;5070904;28;20123;-88
2024/01/07 10:49:27;;;;;;;3.70;1.20;;;2.00;99.90;;;;;;5083085;28;20095;-89
2024/01/07 10:52:07;;;;;;;1.30;0.63;;;2.10;99.90;;;;;;5076688;28;20046;-89
2024/01/07 10:54:34;;;;;;;1.85;0.70;;;2.10;99.90;;;;;;5076184;28;20097;-89
2024/01/07 10:57:21;;;;;;;2.75;0.90;;;2.20;99.90;;;;;;5076884;28;20032;-88
2024/01/07 10:59:49;;;;;;;3.10;1.08;;;2.20;99.90;;;;;;5076801;28;20032;-89
2024/01/07 11:02:15;;;;;;;2.42;1.20;;;2.20;99.90;;;;;;5083581;28;20488;-89
2024/01/07 11:05:07;;;;;;;6.78;1.63;;;2.20;99.90;;;;;;5076489;28;20044;-89
2024/01/07 11:07:43;;;;;;;2.47;1.00;;;2.10;99.90;;;;;;5076250;28;20036;-89
2024/01/07 11:10:17;;;;;;;2.72;1.02;;;2.20;99.90;;;;;;5076693;28;20177;-89
2024/01/07 11:12:43;;;;;;;1.70;0.90;;;2.10;99.90;;;;;;5076202;28;20042;-89
2024/01/07 11:15:09;;;;;;;1.30;0.57;;;2.10;99.90;;;;;;5076358;28;20119;-89
2024/01/07 11:17:37;;;;;;;5.63;1.40;;;2.20;99.90;;;;;;5076237;28;20438;-89
2024/01/07 11:20:05;;;;;;;3.10;1.30;;;2.10;99.90;;;;;;5093340;28;20043;-89
2024/01/07 11:22:31;;;;;;;2.53;0.98;;;2.10;99.90;;;;;;5067059;28;20471;-89
2024/01/07 11:24:58;;;;;;;2.10;0.95;;;2.10;99.90;;;;;;5075774;28;20119;-89
2024/01/07 11:27:25;;;;;;;2.50;1.23;;;2.10;99.90;;;;;;5075712;28;20046;-89
2024/01/07 11:29:56;;;;;;;4.18;1.40;;;2.10;99.90;;;;;;5092468;28;20040;-88
2024/01/07 11:32:24;;;;;;;3.78;1.27;;;2.10;99.90;;;;;;5075995;28;20459;-89
2024/01/07 11:34:53;;;;;;;2.17;0.93;;;2.20;99.90;;;;;;5092627;28;20123;-89
2024/01/07 11:37:19;;;;;;;1.52;0.55;;;2.20;99.90;;;;;;5076350;28;20047;-89
2024/01/07 11:39:46;;;;;;;2.47;1.13;;;2.10;99.90;;;;;;5076131;28;20120;-89
2024/01/07 11:42:12;;;;;;;2.63;1.58;;;2.10;99.90;;;;;;5075887;28;20123;-89
2024/01/07 11:44:45;;;;;;;1.13;0.55;;;2.20;99.90;;;;;;5091580;28;20388;-90
2024/01/07 11:47:10;;;;;;;2.22;0.98;;;2.20;99.90;;;;;;5066333;28;20042;-90
2024/01/07 11:49:36;;;;;;;1.42;0.75;;;2.20;99.90;;;;;;5092301;28;20455;-89
2024/01/07 11:52:03;;;;;;;2.17;0.90;;;2.30;99.90;;;;;;5092462;28;20035;-90
2024/01/07 11:54:29;;;;;;;3.28;1.00;;;2.30;99.90;;;;;;5074943;28;20426;-90
2024/01/07 11:56:56;;;;;;;2.20;0.90;;;2.40;99.90;;;;;;5075590;28;20036;-88
2024/01/07 11:59:22;;;;;;;1.98;0.98;;;2.50;99.90;;;;;;5075769;28;20032;-89
2024/01/07 12:01:47;;;;;;;3.83;1.30;;;2.70;99.90;;;;;;5092749;28;20032;-89
2024/01/07 12:04:13;;;;;;;3.00;1.25;;;2.90;99.90;;;;;;5075448;28;20427;-90
2024/01/07 12:06:39;;;;;;;1.45;0.75;;;3.40;99.90;;;;;;5092276;28;20118;-90
2024/01/07 12:09:05;;;;;;;5.20;1.52;;;4.40;99.90;;;;;;5092049;28;20047;-90
2024/01/07 12:11:32;;;;;;;2.70;1.10;;;5.40;99.90;;;;;;5092190;28;20044;-89
2024/01/07 12:13:57;;;;;;;5.10;1.33;;;6.30;99.90;;;;;;5091911;28;20066;-89
2024/01/07 12:16:23;;;;;;;4.32;1.35;;;7.10;99.90;;;;;;5074534;28;20036;-89
2024/01/07 12:18:49;;;;;;;4.53;1.48;;;7.50;99.90;;;;;;5078602;28;20052;-90
2024/01/07 12:21:21;;;;;;;3.15;1.10;;;7.90;99.90;;;;;;5072427;28;20036;-89
2024/01/07 12:23:50;;;;;;;4.85;1.33;;;8.50;99.90;;;;;;5067641;28;20032;-89
2024/01/07 12:26:19;;;;;;;4.32;1.40;;;8.80;99.90;;;;;;5075125;28;20562;-90
2024/01/07 12:28:44;;;;;;;7.32;1.52;;;9.50;99.90;;;;;;5075436;28;20051;-89
2024/01/07 12:31:10;;;;;;;3.70;1.40;;;10.50;99.90;;;;;;5091659;28;20036;-90
2024/01/07 12:33:41;;;;;;;2.85;1.17;;;11.90;99.90;;;;;;5091745;28;20036;-90
2024/01/07 12:36:07;;;;;;;5.35;1.63;;;13.10;98.20;;;;;;5091452;28;20040;-90
2024/01/07 12:38:33;;;;;;;6.13;1.80;;;13.70;99.10;;;;;;5064033;28;20033;-87
2024/01/07 12:40:58;;;;;;;5.50;1.90;;;14.10;95.50;;;;;;5063118;28;20040;-87
2024/01/07 12:43:24;;;;;;;5.38;1.75;;;14.80;95.90;;;;;;5055364;28;20040;-88
2024/01/07 12:45:50;;;;;;;5.72;2.05;;;15.10;94.10;;;;;;5064610;28;20130;-87
2024/01/07 12:48:16;;;;;;;7.05;2.20;;;15.50;75.60;;;;;;5074592;28;20040;-88
2024/01/07 12:50:41;;;;;;;6.13;2.03;;;15.50;68.10;;;;;;5074717;28;20047;-89